createdAt,value
2022-12-23T00:00:18.032Z,73.00
2022-12-23T00:01:06.331Z,76.47
2022-12-23T00:01:53.361Z,70.32
2022-12-23T00:02:40.504Z,69.28
2022-12-23T00:03:28.265Z,70.50
2022-12-23T00:04:15.524Z,71.35
2022-12-23T00:05:03.106Z,71.20
2022-12-23T00:05:50.781Z,73.07
2022-12-23T00:06:37.713Z,73.18
2022-12-23T00:07:24.630Z,78.20
2022-12-23T00:08:11.572Z,75.03
2022-12-23T00:08:59.216Z,74.37
2022-12-23T00:09:46.367Z,76.20
2022-12-23T00:10:34.176Z,78.40
2022-12-23T00:11:21.191Z,70.65
2022-12-23T00:12:26.629Z,80.72
2022-12-23T00:13:32.509Z,77.12
2022-12-23T00:14:38.181Z,71.60
2022-12-23T00:15:25.114Z,70.35
2022-12-23T00:16:14.041Z,77.87
2022-12-23T00:17:01.086Z,79.07
2022-12-23T00:17:48.140Z,79.80
2022-12-23T00:18:35.684Z,81.70
2022-12-23T00:19:22.669Z,77.85
2022-12-23T00:20:12.302Z,85.32
2022-12-23T00:21:08.638Z,84.40
2022-12-23T00:21:56.216Z,82.47
2022-12-23T00:23:01.563Z,76.75
2022-12-23T00:23:50.026Z,82.85
2022-12-23T00:24:36.970Z,77.90
2022-12-23T00:25:44.430Z,80.87
2022-12-23T00:26:31.321Z,80.05
2022-12-23T00:27:18.270Z,79.70
2022-12-23T00:28:05.298Z,81.68
2022-12-23T00:28:52.765Z,82.30
2022-12-23T00:29:39.661Z,79.97
2022-12-23T00:30:26.658Z,84.18
2022-12-23T00:31:14.767Z,85.55
2022-12-23T00:32:01.806Z,82.37
2022-12-23T00:32:48.764Z,83.97
2022-12-23T00:33:38.344Z,75.78
2022-12-23T00:34:25.275Z,84.55
2022-12-23T00:35:12.222Z,83.10
2022-12-23T00:35:59.226Z,79.18
2022-12-23T00:36:46.182Z,83.57
2022-12-23T00:37:33.139Z,79.22
2022-12-23T00:38:41.134Z,78.37
2022-12-23T00:40:06.767Z,74.28
2022-12-23T00:41:12.620Z,71.65
2022-12-23T00:42:18.202Z,72.75
2022-12-23T00:43:05.187Z,67.70
2022-12-23T00:43:52.461Z,72.20
2022-12-23T00:44:39.361Z,72.45
2022-12-23T00:45:26.485Z,69.30
2022-12-23T00:46:13.473Z,70.78
2022-12-23T00:47:00.469Z,67.22
2022-12-23T00:48:07.333Z,67.03
2022-12-23T00:49:13.420Z,64.28
2022-12-23T00:50:00.444Z,66.60
2022-12-23T00:50:47.440Z,60.50
2022-12-23T00:51:34.459Z,67.70
2022-12-23T00:52:21.386Z,63.67
2022-12-23T00:53:08.410Z,69.37
2022-12-23T00:53:55.371Z,63.70
2022-12-23T00:54:42.417Z,65.78
2022-12-23T00:55:29.366Z,66.60
2022-12-23T00:56:16.291Z,62.97
2022-12-23T00:57:03.751Z,64.97
2022-12-23T00:57:50.757Z,66.80
2022-12-23T00:58:37.689Z,71.80
2022-12-23T00:59:24.629Z,65.28
2022-12-23T01:00:12.232Z,67.00
2022-12-23T01:01:17.981Z,74.80
2022-12-23T01:02:23.573Z,70.95
2022-12-23T01:03:34.486Z,69.12
2022-12-23T01:04:40.107Z,64.32
2022-12-23T01:05:39.203Z,69.43
2022-12-23T01:06:26.198Z,69.53
2022-12-23T01:07:13.145Z,63.85
2022-12-23T01:08:00.088Z,69.82
2022-12-23T01:08:47.060Z,75.10
2022-12-23T01:09:34.417Z,74.78
2022-12-23T01:10:24.282Z,77.05
2022-12-23T01:11:12.729Z,55.47
2022-12-23T01:11:59.660Z,76.95
2022-12-23T01:12:46.621Z,73.68
2022-12-23T01:13:34.125Z,75.35
2022-12-23T01:14:21.731Z,76.22
2022-12-23T01:15:09.039Z,67.80
2022-12-23T01:16:04.240Z,71.45
2022-12-23T01:16:51.384Z,73.53
2022-12-23T01:17:38.282Z,81.37
2022-12-23T01:18:25.224Z,85.43
2022-12-23T01:19:12.494Z,66.57
2022-12-23T01:19:59.445Z,73.87
2022-12-23T01:20:46.379Z,74.68
2022-12-23T01:21:33.981Z,72.60
2022-12-23T01:22:20.985Z,75.80
2022-12-23T01:23:07.960Z,78.28
2022-12-23T01:23:54.871Z,76.93
2022-12-23T01:24:41.850Z,71.82
2022-12-23T01:25:28.857Z,73.60
2022-12-23T01:26:16.045Z,78.60
2022-12-23T01:27:02.994Z,72.95
2022-12-23T01:27:49.911Z,82.47
2022-12-23T01:28:37.072Z,79.68
2022-12-23T01:29:24.240Z,71.20
2022-12-23T01:30:11.429Z,81.80
2022-12-23T01:31:00.612Z,78.28
2022-12-23T01:31:47.589Z,85.22
2022-12-23T01:32:34.573Z,75.80
2022-12-23T01:33:21.817Z,77.55
2022-12-23T01:34:08.805Z,84.15
2022-12-23T01:34:55.745Z,79.12
2022-12-23T01:35:42.739Z,78.97
2022-12-23T01:36:29.705Z,73.85
2022-12-23T01:37:16.638Z,75.22
2022-12-23T01:38:03.576Z,72.22
2022-12-23T01:38:50.948Z,70.20
2022-12-23T01:39:37.891Z,73.18
2022-12-23T01:40:24.845Z,72.55
2022-12-23T01:41:43.117Z,79.30
2022-12-23T01:42:45.480Z,64.43
2022-12-23T01:44:24.830Z,64.03
2022-12-23T01:45:31.208Z,64.75
2022-12-23T01:46:18.494Z,58.95
2022-12-23T01:47:10.258Z,66.72
2022-12-23T01:48:25.502Z,72.62
2022-12-23T01:49:12.489Z,71.03
2022-12-23T01:50:05.301Z,62.78
2022-12-23T01:50:59.343Z,70.07
2022-12-23T01:51:46.240Z,67.57
2022-12-23T01:52:36.467Z,64.55
2022-12-23T01:53:27.370Z,65.28
2022-12-23T01:54:14.309Z,64.70
2022-12-23T01:55:01.334Z,72.32
2022-12-23T01:56:01.671Z,71.15
2022-12-23T01:56:49.070Z,71.60
2022-12-23T01:57:37.291Z,68.78
2022-12-23T01:58:31.645Z,65.75
2022-12-23T01:59:36.949Z,64.82
2022-12-23T02:00:42.368Z,66.65
2022-12-23T02:01:48.793Z,63.75
2022-12-23T02:02:56.106Z,64.68
2022-12-23T02:03:44.452Z,68.55
2022-12-23T02:04:31.600Z,67.30
2022-12-23T02:05:18.570Z,63.28
2022-12-23T02:06:24.395Z,63.92
2022-12-23T02:07:29.939Z,67.85
2022-12-23T02:08:35.877Z,71.90
2022-12-23T02:09:34.955Z,70.37
2022-12-23T02:10:25.910Z,56.85
2022-12-23T02:11:18.663Z,61.50
2022-12-23T02:12:34.721Z,58.63
2022-12-23T02:14:07.129Z,71.07
2022-12-23T02:15:31.132Z,56.65
2022-12-23T02:16:18.145Z,63.55
2022-12-23T02:17:12.975Z,58.45
2022-12-23T02:18:31.871Z,63.83
2022-12-23T02:19:54.225Z,56.55
2022-12-23T02:21:15.878Z,61.72
2022-12-23T02:22:21.089Z,59.63
2022-12-23T02:23:38.947Z,63.75
2022-12-23T02:24:55.425Z,57.65
2022-12-23T02:25:45.139Z,55.40
2022-12-23T02:26:56.334Z,59.00
2022-12-23T02:27:48.900Z,58.20
2022-12-23T02:29:00.724Z,58.20
2022-12-23T02:30:02.547Z,58.97
2022-12-23T02:30:57.663Z,61.28
2022-12-23T02:32:24.279Z,60.20
2022-12-23T02:33:39.236Z,59.53
2022-12-23T02:34:38.356Z,60.85
2022-12-23T02:35:33.742Z,56.20
2022-12-23T02:36:32.623Z,59.22
2022-12-23T02:37:24.980Z,63.60
2022-12-23T02:38:28.328Z,67.75
2022-12-23T02:39:24.319Z,60.47
2022-12-23T02:40:33.617Z,61.03
2022-12-23T02:41:42.685Z,48.40
2022-12-23T02:42:41.646Z,55.00
2022-12-23T02:43:51.882Z,64.20
2022-12-23T02:45:08.658Z,53.72
2022-12-23T02:46:01.187Z,53.15
2022-12-23T02:46:52.376Z,51.50
2022-12-23T02:47:47.038Z,59.40
2022-12-23T02:48:52.453Z,58.13
2022-12-23T02:49:42.815Z,54.08
2022-12-23T02:50:32.793Z,61.60
2022-12-23T02:51:21.251Z,58.83
2022-12-23T02:52:14.144Z,55.60
2022-12-23T02:53:07.408Z,61.22
2022-12-23T02:53:56.883Z,62.13
2022-12-23T02:54:57.658Z,62.60
2022-12-23T02:55:47.249Z,59.78
2022-12-23T02:56:35.715Z,61.17
2022-12-23T02:57:29.012Z,56.20
2022-12-23T02:58:18.712Z,61.95
2022-12-23T02:59:11.915Z,60.67
2022-12-23T03:00:00.635Z,57.13
2022-12-23T03:00:48.690Z,64.47
2022-12-23T03:01:36.287Z,60.20
2022-12-23T03:02:23.426Z,63.58
2022-12-23T03:03:10.942Z,62.92
2022-12-23T03:03:58.067Z,60.85
2022-12-23T03:04:45.081Z,61.42
2022-12-23T03:05:36.328Z,59.70
2022-12-23T03:06:26.820Z,63.17
2022-12-23T03:07:35.593Z,59.58
2022-12-23T03:08:35.165Z,66.35
2022-12-23T03:09:59.510Z,61.00
2022-12-23T03:11:06.430Z,63.35
2022-12-23T03:12:22.462Z,56.90
2022-12-23T03:13:46.959Z,63.17
2022-12-23T03:14:54.855Z,60.67
2022-12-23T03:15:47.444Z,55.97
2022-12-23T03:16:34.386Z,58.13
2022-12-23T03:17:30.387Z,55.53
2022-12-23T03:18:34.439Z,54.50
2022-12-23T03:19:26.698Z,60.35
2022-12-23T03:20:21.688Z,58.55
2022-12-23T03:21:29.044Z,57.60
2022-12-23T03:23:00.556Z,60.25
2022-12-23T03:25:06.042Z,54.92
2022-12-23T03:26:12.467Z,51.67
2022-12-23T03:27:09.486Z,49.50
2022-12-23T03:28:05.738Z,52.40
2022-12-23T03:28:58.742Z,57.70
2022-12-23T03:29:57.259Z,55.28
2022-12-23T03:30:47.826Z,55.28
2022-12-23T03:31:35.317Z,52.15
2022-12-23T03:32:22.902Z,58.38
2022-12-23T03:33:16.979Z,58.80
2022-12-23T03:34:19.098Z,55.85
2022-12-23T03:35:08.847Z,60.28
2022-12-23T03:36:02.796Z,53.87
2022-12-23T03:36:52.943Z,60.10
2022-12-23T03:37:44.207Z,61.50
2022-12-23T03:38:33.360Z,56.85
2022-12-23T03:39:23.007Z,61.65
2022-12-23T03:40:11.561Z,62.28
2022-12-23T03:41:01.591Z,57.88
2022-12-23T03:41:53.156Z,58.17
2022-12-23T03:42:42.094Z,67.28
2022-12-23T03:43:33.117Z,52.40
2022-12-23T03:44:25.037Z,53.70
2022-12-23T03:45:41.282Z,50.67
2022-12-23T03:46:36.146Z,48.67
2022-12-23T03:47:30.348Z,45.58
2022-12-23T03:48:24.341Z,45.92
2022-12-23T03:49:21.927Z,48.55
2022-12-23T03:50:12.132Z,53.40
2022-12-23T03:51:02.793Z,52.55
2022-12-23T03:52:45.519Z,48.80
2022-12-23T03:53:39.199Z,47.90
2022-12-23T03:54:37.287Z,51.75
2022-12-23T03:55:30.358Z,45.92
2022-12-23T03:56:22.479Z,48.50
2022-12-23T03:57:09.956Z,47.42
2022-12-23T03:58:10.604Z,45.88
2022-12-23T03:59:03.937Z,49.05
2022-12-23T03:59:51.728Z,50.72
2022-12-23T04:00:46.249Z,49.13
2022-12-23T04:01:51.696Z,45.67
2022-12-23T04:02:52.590Z,48.58
2022-12-23T04:03:57.758Z,46.20
2022-12-23T04:05:02.991Z,46.85
2022-12-23T04:05:56.676Z,48.30
2022-12-23T04:06:55.748Z,53.87
2022-12-23T04:07:51.980Z,54.10
2022-12-23T04:08:39.486Z,53.95
2022-12-23T04:09:28.982Z,52.65
2022-12-23T04:10:15.968Z,49.28
2022-12-23T04:11:03.341Z,51.05
2022-12-23T04:11:50.922Z,49.08
2022-12-23T04:12:38.415Z,54.78
2022-12-23T04:13:27.573Z,49.35
2022-12-23T04:14:22.411Z,50.75
2022-12-23T04:15:13.127Z,44.50
2022-12-23T04:16:01.483Z,49.85
2022-12-23T04:16:54.170Z,47.97
2022-12-23T04:17:41.100Z,51.03
2022-12-23T04:18:28.703Z,50.55
2022-12-23T04:19:16.099Z,53.95
2022-12-23T04:20:03.097Z,52.72
2022-12-23T04:20:50.019Z,52.20
2022-12-23T04:21:37.048Z,49.13
2022-12-23T04:22:24.133Z,47.80
2022-12-23T04:23:11.057Z,52.55
2022-12-23T04:23:58.013Z,48.83
2022-12-23T04:24:44.907Z,50.10
2022-12-23T04:25:31.815Z,52.60
2022-12-23T04:26:18.758Z,52.45
2022-12-23T04:27:06.938Z,50.03
2022-12-23T04:27:53.872Z,54.88
2022-12-23T04:28:40.770Z,52.65
2022-12-23T04:29:27.762Z,50.97
2022-12-23T04:30:14.956Z,56.85
2022-12-23T04:31:01.888Z,48.97
2022-12-23T04:31:48.951Z,59.22
2022-12-23T04:32:35.978Z,56.42
2022-12-23T04:33:22.931Z,53.87
2022-12-23T04:34:09.852Z,58.05
2022-12-23T04:34:56.790Z,57.88
2022-12-23T04:35:43.718Z,60.70
2022-12-23T04:36:32.001Z,58.05
2022-12-23T04:37:18.929Z,56.83
2022-12-23T04:38:05.903Z,62.17
2022-12-23T04:38:52.861Z,55.42
2022-12-23T04:39:39.831Z,61.60
2022-12-23T04:40:26.743Z,50.90
2022-12-23T04:41:13.655Z,53.33
2022-12-23T04:42:00.640Z,59.72
2022-12-23T04:42:47.530Z,56.25
2022-12-23T04:43:34.429Z,59.85
2022-12-23T04:44:21.427Z,54.33
2022-12-23T04:45:09.135Z,59.42
2022-12-23T04:45:56.049Z,53.17
2022-12-23T04:46:43.026Z,61.97
2022-12-23T04:47:30.020Z,54.15
2022-12-23T04:48:16.995Z,57.13
2022-12-23T04:49:03.914Z,56.03
2022-12-23T04:49:50.846Z,59.28
2022-12-23T04:50:37.738Z,58.87
2022-12-23T04:51:24.633Z,60.95
2022-12-23T04:52:11.590Z,51.55
2022-12-23T04:52:58.483Z,53.92
2022-12-23T04:53:45.425Z,55.35
2022-12-23T04:54:32.441Z,51.10
2022-12-23T04:55:19.493Z,62.97
2022-12-23T04:56:08.146Z,57.78
2022-12-23T04:56:55.458Z,56.13
2022-12-23T04:57:42.442Z,48.80
2022-12-23T04:58:29.341Z,57.33
2022-12-23T04:59:16.606Z,56.90
2022-12-23T05:00:05.036Z,51.45
2022-12-23T05:01:06.779Z,52.85
2022-12-23T05:01:53.946Z,55.28
2022-12-23T05:02:41.062Z,51.92
2022-12-23T05:03:28.184Z,56.22
2022-12-23T05:04:15.341Z,51.75
2022-12-23T05:05:02.421Z,65.95
2022-12-23T05:05:49.431Z,65.03
2022-12-23T05:06:37.148Z,61.13
2022-12-23T05:07:24.107Z,63.92
2022-12-23T05:08:11.041Z,63.45
2022-12-23T05:08:57.984Z,61.88
2022-12-23T05:09:44.911Z,58.47
2022-12-23T05:10:32.401Z,55.22
2022-12-23T05:11:19.485Z,61.37
2022-12-23T05:12:06.473Z,62.85
2022-12-23T05:12:53.388Z,57.33
2022-12-23T05:13:40.391Z,62.92
2022-12-23T05:14:27.308Z,51.97
2022-12-23T05:15:14.220Z,54.97
2022-12-23T05:16:01.301Z,52.58
2022-12-23T05:16:48.503Z,57.70
2022-12-23T05:17:35.470Z,60.70
2022-12-23T05:18:22.896Z,42.92
2022-12-23T05:19:11.004Z,47.80
2022-12-23T05:19:57.899Z,49.80
2022-12-23T05:20:44.822Z,50.38
2022-12-23T05:21:31.788Z,41.97
2022-12-23T05:22:18.841Z,46.20
2022-12-23T05:23:05.827Z,55.33
2022-12-23T05:23:52.793Z,49.20
2022-12-23T05:24:39.709Z,51.15
2022-12-23T05:25:26.668Z,55.95
2022-12-23T05:26:13.853Z,58.35
2022-12-23T05:27:00.931Z,55.03
2022-12-23T05:27:47.852Z,54.38
2022-12-23T05:28:34.759Z,57.00
2022-12-23T05:29:21.673Z,59.22
2022-12-23T05:30:09.371Z,58.95
2022-12-23T05:31:05.500Z,55.88
2022-12-23T05:31:52.517Z,48.53
2022-12-23T05:32:39.637Z,53.87
2022-12-23T05:33:27.131Z,53.30
2022-12-23T05:34:14.092Z,57.00
2022-12-23T05:35:01.050Z,57.55
2022-12-23T05:35:48.016Z,61.37
2022-12-23T05:36:34.931Z,53.92
2022-12-23T05:37:21.833Z,59.08
2022-12-23T05:38:08.768Z,56.90
2022-12-23T05:38:55.740Z,52.17
2022-12-23T05:39:42.605Z,55.72
2022-12-23T05:40:31.640Z,62.47
2022-12-23T05:41:19.664Z,56.15
2022-12-23T05:42:06.659Z,51.75
2022-12-23T05:42:53.564Z,50.42
2022-12-23T05:43:40.528Z,54.08
2022-12-23T05:44:27.459Z,47.47
2022-12-23T05:45:14.482Z,52.28
2022-12-23T05:46:01.433Z,47.90
2022-12-23T05:46:48.346Z,51.10
2022-12-23T05:47:35.287Z,48.42
2022-12-23T05:48:22.205Z,47.60
2022-12-23T05:49:09.160Z,47.92
2022-12-23T05:49:56.209Z,47.35
2022-12-23T05:50:43.390Z,47.53
2022-12-23T05:51:30.303Z,44.70
2022-12-23T05:52:17.238Z,44.13
2022-12-23T05:53:04.324Z,43.03
2022-12-23T05:53:51.249Z,42.55
2022-12-23T05:54:38.205Z,39.75
2022-12-23T05:55:25.713Z,43.13
2022-12-23T05:56:12.650Z,38.65
2022-12-23T05:56:59.654Z,43.87
2022-12-23T05:57:46.570Z,42.45
2022-12-23T05:58:34.648Z,43.50
2022-12-23T05:59:21.613Z,38.38
2022-12-23T06:00:09.966Z,38.75
2022-12-23T06:00:56.849Z,39.45
2022-12-23T06:01:44.020Z,38.58
2022-12-23T06:02:31.204Z,37.03
2022-12-23T06:03:18.470Z,37.05
2022-12-23T06:04:05.749Z,37.70
2022-12-23T06:04:52.647Z,35.75
2022-12-23T06:05:40.424Z,36.90
2022-12-23T06:06:27.357Z,38.08
2022-12-23T06:07:14.260Z,33.42
2022-12-23T06:08:01.153Z,34.22
2022-12-23T06:08:48.050Z,32.72
2022-12-23T06:09:34.959Z,33.85
2022-12-23T06:10:21.898Z,35.10
2022-12-23T06:11:08.846Z,32.60
2022-12-23T06:11:55.763Z,30.62
2022-12-23T06:12:42.669Z,32.45
2022-12-23T06:13:29.567Z,32.35
2022-12-23T06:14:16.459Z,31.17
2022-12-23T06:15:03.667Z,28.90
2022-12-23T06:15:50.695Z,29.25
2022-12-23T06:16:37.700Z,30.33
2022-12-23T06:17:24.688Z,29.60
2022-12-23T06:18:11.582Z,29.42
2022-12-23T06:18:58.500Z,29.10
2022-12-23T06:19:45.468Z,29.45
2022-12-23T06:20:32.418Z,26.98
2022-12-23T06:21:19.380Z,28.08
2022-12-23T06:22:06.298Z,26.60
2022-12-23T06:22:53.279Z,29.63
2022-12-23T06:23:40.203Z,26.67
2022-12-23T06:24:27.101Z,27.83
2022-12-23T06:25:14.093Z,27.25
2022-12-23T06:26:02.099Z,25.15
2022-12-23T06:26:54.901Z,26.83
2022-12-23T06:27:43.901Z,28.40
2022-12-23T06:28:30.845Z,27.83
2022-12-23T06:29:17.722Z,23.15
2022-12-23T06:30:04.951Z,25.05
2022-12-23T06:30:55.929Z,27.13
2022-12-23T06:31:42.980Z,23.23
2022-12-23T06:32:34.518Z,26.90
2022-12-23T06:33:25.507Z,26.17
2022-12-23T06:34:12.470Z,22.83
2022-12-23T06:34:59.340Z,27.62
2022-12-23T06:35:46.235Z,23.27
2022-12-23T06:36:33.129Z,23.30
2022-12-23T06:37:21.367Z,24.40
2022-12-23T06:38:11.992Z,24.80
2022-12-23T06:38:59.374Z,23.65
2022-12-23T06:39:46.318Z,23.15
2022-12-23T06:40:33.238Z,23.12
2022-12-23T06:41:20.119Z,23.55
2022-12-23T06:42:07.012Z,26.25
2022-12-23T06:42:53.951Z,24.48
2022-12-23T06:43:40.874Z,21.60
2022-12-23T06:44:27.817Z,24.40
2022-12-23T06:45:14.796Z,22.75
2022-12-23T06:46:01.828Z,24.80
2022-12-23T06:46:48.858Z,23.12
2022-12-23T06:47:35.820Z,24.85
2022-12-23T06:48:23.244Z,24.27
2022-12-23T06:49:13.495Z,20.98
2022-12-23T06:50:47.802Z,22.27
2022-12-23T06:51:34.768Z,21.75
2022-12-23T06:52:23.281Z,22.52
2022-12-23T06:53:10.186Z,21.12
2022-12-23T06:53:59.470Z,22.62
2022-12-23T06:54:46.433Z,20.55
2022-12-23T06:55:33.437Z,21.35
2022-12-23T06:56:20.564Z,22.42
2022-12-23T06:57:07.530Z,23.23
2022-12-23T06:57:54.457Z,21.15
2022-12-23T06:58:41.365Z,25.50
2022-12-23T06:59:29.251Z,23.52
2022-12-23T07:00:16.799Z,26.05
2022-12-23T07:01:03.840Z,22.45
2022-12-23T07:01:50.961Z,21.70
2022-12-23T07:02:38.160Z,24.85
2022-12-23T07:03:25.194Z,24.63
2022-12-23T07:04:12.157Z,24.45
2022-12-23T07:04:59.194Z,24.48
2022-12-23T07:05:52.438Z,23.02
2022-12-23T07:06:40.014Z,26.35
2022-12-23T07:07:26.888Z,24.00
2022-12-23T07:08:13.773Z,23.02
2022-12-23T07:09:01.319Z,24.67
2022-12-23T07:09:48.297Z,27.37
2022-12-23T07:10:35.311Z,23.75
2022-12-23T07:11:22.226Z,25.88
2022-12-23T07:12:09.479Z,24.12
2022-12-23T07:12:56.398Z,24.10
2022-12-23T07:13:43.337Z,24.65
2022-12-23T07:14:30.268Z,24.25
2022-12-23T07:15:17.220Z,24.52
2022-12-23T07:16:09.039Z,26.85
2022-12-23T07:16:56.058Z,24.90
2022-12-23T07:17:43.049Z,26.17
2022-12-23T07:18:29.938Z,26.45
2022-12-23T07:19:16.817Z,27.58
2022-12-23T07:20:04.090Z,23.08
2022-12-23T07:20:51.695Z,26.85
2022-12-23T07:21:39.029Z,26.15
2022-12-23T07:22:25.947Z,24.35
2022-12-23T07:23:12.831Z,23.33
2022-12-23T07:23:59.779Z,23.67
2022-12-23T07:24:46.676Z,24.95
2022-12-23T07:25:33.668Z,23.98
2022-12-23T07:26:20.639Z,23.23
2022-12-23T07:27:07.599Z,22.30
2022-12-23T07:27:55.515Z,22.02
2022-12-23T07:28:48.037Z,20.23
2022-12-23T07:29:34.919Z,20.37
2022-12-23T07:30:22.887Z,23.08
2022-12-23T07:31:09.895Z,23.62
2022-12-23T07:31:56.868Z,20.30
2022-12-23T07:32:43.842Z,22.10
2022-12-23T07:33:30.777Z,20.58
2022-12-23T07:34:17.707Z,21.87
2022-12-23T07:35:04.990Z,23.83
2022-12-23T07:35:51.905Z,23.92
2022-12-23T07:36:38.874Z,23.02
2022-12-23T07:37:25.799Z,22.05
2022-12-23T07:38:12.872Z,21.65
2022-12-23T07:38:59.810Z,23.12
2022-12-23T07:39:46.723Z,21.87
2022-12-23T07:40:33.681Z,21.12
2022-12-23T07:41:20.700Z,19.52
2022-12-23T07:43:14.613Z,21.45
2022-12-23T07:44:01.575Z,20.02
2022-12-23T07:44:48.519Z,20.02
2022-12-23T07:45:35.433Z,19.20
2022-12-23T07:46:22.506Z,23.05
2022-12-23T07:47:09.596Z,25.65
2022-12-23T07:47:58.245Z,17.35
2022-12-23T07:48:45.172Z,20.23
2022-12-23T07:49:32.058Z,19.85
2022-12-23T07:50:18.998Z,18.20
2022-12-23T07:51:06.060Z,20.05
2022-12-23T07:51:53.071Z,21.27
2022-12-23T07:52:40.258Z,17.92
2022-12-23T07:53:27.162Z,17.83
2022-12-23T07:54:14.409Z,19.25
2022-12-23T07:55:01.322Z,18.75
2022-12-23T07:55:54.578Z,17.20
2022-12-23T07:56:43.468Z,19.27
2022-12-23T07:57:30.472Z,19.27
2022-12-23T07:58:17.478Z,18.85
2022-12-23T07:59:04.374Z,22.65
2022-12-23T07:59:51.408Z,18.17
2022-12-23T08:00:38.320Z,16.17
2022-12-23T08:01:25.337Z,17.98
2022-12-23T08:02:12.450Z,17.45
2022-12-23T08:02:59.600Z,17.60
2022-12-23T08:03:47.237Z,17.90
2022-12-23T08:04:34.323Z,20.42
2022-12-23T08:05:21.421Z,17.37
2022-12-23T08:06:12.863Z,18.23
2022-12-23T08:06:59.801Z,16.92
2022-12-23T08:07:46.817Z,18.85
2022-12-23T08:08:34.197Z,16.48
2022-12-23T08:09:21.110Z,17.40
2022-12-23T08:10:08.664Z,15.65
2022-12-23T08:11:04.525Z,18.00
2022-12-23T08:11:51.545Z,17.73
2022-12-23T08:12:38.511Z,16.85
2022-12-23T08:13:25.544Z,18.05
2022-12-23T08:14:12.535Z,19.02
2022-12-23T08:14:59.660Z,18.90
2022-12-23T08:15:46.566Z,17.83
2022-12-23T08:16:39.573Z,17.60
2022-12-23T08:17:30.856Z,16.95
2022-12-23T08:18:17.825Z,17.30
2022-12-23T08:19:04.728Z,17.52
2022-12-23T08:19:51.636Z,19.40
2022-12-23T08:20:38.557Z,18.50
2022-12-23T08:21:25.529Z,17.02
2022-12-23T08:22:12.488Z,15.77
2022-12-23T08:22:59.393Z,19.08
2022-12-23T08:23:47.664Z,18.27
2022-12-23T08:24:34.566Z,19.15
2022-12-23T08:25:21.467Z,17.77
2022-12-23T08:26:13.288Z,17.70
2022-12-23T08:27:00.165Z,16.92
2022-12-23T08:27:47.167Z,18.62
2022-12-23T08:28:35.615Z,17.00
2022-12-23T08:29:23.457Z,19.62
2022-12-23T08:30:11.032Z,18.52
2022-12-23T08:31:18.123Z,17.45
2022-12-23T08:33:13.259Z,19.42
2022-12-23T08:34:00.974Z,17.95
2022-12-23T08:34:47.947Z,17.62
2022-12-23T08:35:34.875Z,17.37
2022-12-23T08:36:27.618Z,17.92
2022-12-23T08:37:14.847Z,16.87
2022-12-23T08:38:01.736Z,17.10
2022-12-23T08:38:48.704Z,17.60
2022-12-23T08:39:35.784Z,18.27
2022-12-23T08:40:22.723Z,17.73
2022-12-23T08:41:18.902Z,17.50
2022-12-23T08:42:05.867Z,19.08
2022-12-23T08:42:52.729Z,18.62
2022-12-23T08:43:39.757Z,18.80
2022-12-23T08:44:30.088Z,17.12
2022-12-23T08:45:16.997Z,18.87
2022-12-23T08:46:04.438Z,18.58
2022-12-23T08:46:51.342Z,18.25
2022-12-23T08:47:38.299Z,18.02
2022-12-23T08:48:25.233Z,19.92
2022-12-23T08:49:12.189Z,21.35
2022-12-23T08:49:59.104Z,18.87
2022-12-23T08:50:46.985Z,21.37
2022-12-23T08:51:34.536Z,20.37
2022-12-23T08:52:21.464Z,19.58
2022-12-23T08:53:08.613Z,20.35
2022-12-23T08:54:00.597Z,20.60
2022-12-23T08:54:48.121Z,21.15
2022-12-23T08:55:39.389Z,18.92
2022-12-23T08:56:29.281Z,20.58
2022-12-23T08:57:16.217Z,20.30
2022-12-23T08:58:03.198Z,19.95
2022-12-23T08:58:52.877Z,20.95
2022-12-23T08:59:39.761Z,19.98
2022-12-23T09:00:26.752Z,22.20
2022-12-23T09:01:15.732Z,19.95
2022-12-23T09:02:03.765Z,21.05
2022-12-23T09:02:50.947Z,21.87
2022-12-23T09:03:38.574Z,21.20
2022-12-23T09:04:25.642Z,20.42
2022-12-23T09:05:12.499Z,21.37
2022-12-23T09:05:59.399Z,21.70
2022-12-23T09:06:46.416Z,20.58
2022-12-23T09:07:33.458Z,21.85
2022-12-23T09:08:20.339Z,22.35
2022-12-23T09:09:08.169Z,20.77
2022-12-23T09:09:55.187Z,21.30
2022-12-23T09:10:43.654Z,22.00
2022-12-23T09:11:30.607Z,21.48
2022-12-23T09:12:17.535Z,22.52
2022-12-23T09:13:04.440Z,22.00
2022-12-23T09:13:51.373Z,20.33
2022-12-23T09:14:38.276Z,22.37
2022-12-23T09:15:25.163Z,26.25
2022-12-23T09:16:12.391Z,20.20
2022-12-23T09:16:59.318Z,23.38
2022-12-23T09:17:46.284Z,23.10
2022-12-23T09:18:33.549Z,23.02
2022-12-23T09:19:20.680Z,19.98
2022-12-23T09:20:08.284Z,21.92
2022-12-23T09:21:00.631Z,21.70
2022-12-23T09:21:48.155Z,21.48
2022-12-23T09:22:35.288Z,21.95
2022-12-23T09:23:22.545Z,22.13
2022-12-23T09:24:21.777Z,19.98
2022-12-23T09:25:09.750Z,21.85
2022-12-23T09:25:59.858Z,20.73
2022-12-23T09:26:57.843Z,21.52
2022-12-23T09:27:44.717Z,19.98
2022-12-23T09:28:31.778Z,21.52
2022-12-23T09:29:24.184Z,24.00
2022-12-23T09:30:14.340Z,21.15
2022-12-23T09:31:09.095Z,21.15
2022-12-23T09:31:56.183Z,21.35
2022-12-23T09:32:46.356Z,22.25
2022-12-23T09:33:33.373Z,19.70
2022-12-23T09:34:20.277Z,20.88
2022-12-23T09:35:07.568Z,21.00
2022-12-23T09:36:00.175Z,21.45
2022-12-23T09:36:51.847Z,22.13
2022-12-23T09:37:41.856Z,21.35
2022-12-23T09:38:28.793Z,21.48
2022-12-23T09:39:15.780Z,20.42
2022-12-23T09:40:03.454Z,20.98
2022-12-23T09:40:52.361Z,22.62
2022-12-23T09:42:01.914Z,22.92
2022-12-23T09:42:57.730Z,21.08
2022-12-23T09:44:14.093Z,20.50
2022-12-23T09:45:20.493Z,20.95
2022-12-23T09:46:21.643Z,19.20
2022-12-23T09:47:13.115Z,20.15
2022-12-23T09:48:00.122Z,21.25
2022-12-23T09:49:05.654Z,20.20
2022-12-23T09:50:00.300Z,20.95
2022-12-23T09:50:47.279Z,19.10
2022-12-23T09:51:34.830Z,19.90
2022-12-23T09:52:35.380Z,20.83
2022-12-23T09:53:26.019Z,19.20
2022-12-23T09:54:25.496Z,21.52
2022-12-23T09:55:12.685Z,21.05
2022-12-23T09:56:15.357Z,20.92
2022-12-23T09:57:23.357Z,22.30
2022-12-23T09:58:29.341Z,20.30
2022-12-23T09:59:31.259Z,19.77
2022-12-23T10:00:20.366Z,18.65
2022-12-23T10:01:16.551Z,18.75
2022-12-23T10:02:03.859Z,19.40
2022-12-23T10:03:30.353Z,20.17
2022-12-23T10:04:23.658Z,19.27
2022-12-23T10:05:49.918Z,19.52
2022-12-23T10:06:42.318Z,17.90
2022-12-23T10:07:34.497Z,18.98
2022-12-23T10:08:35.884Z,18.42
2022-12-23T10:09:25.019Z,19.80
2022-12-23T10:10:24.512Z,21.90
2022-12-23T10:11:34.394Z,18.75
2022-12-23T10:12:40.013Z,20.45
2022-12-23T10:13:35.838Z,19.12
2022-12-23T10:14:25.112Z,19.23
2022-12-23T10:15:41.166Z,18.98
2022-12-23T10:16:34.703Z,19.45
2022-12-23T10:17:28.919Z,19.60
2022-12-23T10:18:23.692Z,18.05
2022-12-23T10:19:20.698Z,20.48
2022-12-23T10:20:15.530Z,19.48
2022-12-23T10:21:08.010Z,19.95
2022-12-23T10:22:06.505Z,19.05
2022-12-23T10:24:37.373Z,18.80
2022-12-23T10:25:35.901Z,18.08
2022-12-23T10:27:01.244Z,18.58
2022-12-23T10:27:49.753Z,18.58
2022-12-23T10:28:43.388Z,18.50
2022-12-23T10:29:34.206Z,18.80
2022-12-23T10:30:54.092Z,17.92
2022-12-23T10:31:44.455Z,18.52
2022-12-23T10:32:46.918Z,18.85
2022-12-23T10:34:04.436Z,18.92
2022-12-23T10:35:05.130Z,17.67
2022-12-23T10:37:37.502Z,17.40
2022-12-23T10:38:36.240Z,19.45
2022-12-23T10:39:38.470Z,17.65
2022-12-23T10:40:42.179Z,21.48
2022-12-23T10:42:02.699Z,20.62
2022-12-23T10:43:05.159Z,18.25
2022-12-23T10:44:01.924Z,17.80
2022-12-23T10:45:13.626Z,17.77
2022-12-23T10:46:16.345Z,17.90
2022-12-23T10:47:14.442Z,17.17
2022-12-23T10:48:20.045Z,18.25
2022-12-23T10:49:25.170Z,17.67
2022-12-23T10:50:46.229Z,16.83
2022-12-23T10:51:51.653Z,17.62
2022-12-23T10:52:41.661Z,16.73
2022-12-23T10:53:56.994Z,15.77
2022-12-23T10:54:45.933Z,17.15
2022-12-23T10:55:35.942Z,16.05
2022-12-23T10:56:23.739Z,17.08
2022-12-23T10:57:10.945Z,17.08
2022-12-23T10:58:04.128Z,16.12
2022-12-23T10:58:55.040Z,16.73
2022-12-23T10:59:42.343Z,16.85
2022-12-23T11:00:29.372Z,16.77
2022-12-23T11:01:26.690Z,16.42
2022-12-23T11:02:14.319Z,16.42
2022-12-23T11:03:13.762Z,17.05
2022-12-23T11:04:31.462Z,16.70
2022-12-23T11:05:22.911Z,15.75
2022-12-23T11:06:11.428Z,16.75
2022-12-23T11:07:26.490Z,15.50
2022-12-23T11:08:06.233Z,15.88
2022-12-23T11:08:53.150Z,16.10
2022-12-23T11:09:48.744Z,16.48
2022-12-23T11:10:35.863Z,16.30